Time;durP1;ratioP1;P1;durP2;ratioP2;P2;SDS_P1;SDS_P2;PMS_P1;PMS_P2;Temp;Humidity;BMP_temperature;BMP_pressure;BME280_temperature;BME280_humidity;BME280_pressure;Samples;Min_cycle;Max_cycle;Signal;HPM_P1;HPM_P2
2022/08/08 00:01:45;;;;;;;1.20;1.20;;;;;;;-144.47;100.00;61586.06;4942285;29;20067;-79
2022/08/08 00:04:23;;;;;;;2.88;1.00;;;;;;;-144.47;100.00;61586.06;4922163;29;20075;-78
2022/08/08 00:07:03;;;;;;;1.17;1.08;;;;;;;-144.47;100.00;61586.06;4941007;29;20035;-79
2022/08/08 00:09:50;;;;;;;6.88;2.75;;;;;;;21.10;100.00;61586.06;4945303;29;20083;-78
2022/08/08 00:12:24;;;;;;;1.30;1.20;;;;;;;-144.47;100.00;61586.06;4942600;29;20039;-78
2022/08/08 00:15:08;;;;;;;1.65;1.13;;;;;;;-144.47;100.00;61586.06;4955061;28;20050;-77
2022/08/08 00:17:55;;;;;;;1.02;1.00;;;;;;;-144.47;100.00;61586.06;4999851;28;20352;-78
2022/08/08 00:20:33;;;;;;;1.52;1.42;;;;;;;-144.47;100.00;61586.06;5000428;28;20045;-78
2022/08/08 00:23:02;;;;;;;2.25;1.77;;;;;;;-144.47;100.00;61586.06;5006093;28;20053;-79
2022/08/08 00:25:41;;;;;;;1.53;1.43;;;;;;;21.10;100.00;61586.06;5001189;28;20038;-78
2022/08/08 00:28:12;;;;;;;1.65;1.55;;;;;;;21.17;100.00;61586.06;5002745;28;20089;-77
2022/08/08 00:30:54;;;;;;;2.33;1.30;;;;;;;21.12;100.00;61586.06;5003997;28;20069;-78
2022/08/08 00:33:26;;;;;;;1.45;1.35;;;;;;;20.88;100.00;61586.06;5003572;28;20105;-78
2022/08/08 00:36:26;;;;;;;4.38;1.50;;;;;;;20.77;100.00;61586.06;5000323;28;20450;-78
2022/08/08 00:39:10;;;;;;;2.97;1.23;;;;;;;20.79;100.00;61586.06;5004149;28;20473;-78
2022/08/08 00:42:02;;;;;;;1.70;1.20;;;;;;;-144.47;100.00;61586.06;4998555;28;20121;-78
2022/08/08 00:44:45;;;;;;;1.67;1.58;;;;;;;20.76;100.00;61586.06;5000286;28;20402;-79
2022/08/08 00:47:29;;;;;;;1.65;1.40;;;;;;;-144.47;100.00;61586.06;5000953;28;20034;-78
2022/08/08 00:50:22;;;;;;;1.42;1.33;;;;;;;-144.47;100.00;61586.06;4996271;28;20037;-79
2022/08/08 00:53:15;;;;;;;1.63;1.42;;;;;;;-144.47;100.00;61586.06;5004413;28;20403;-79
2022/08/08 00:56:18;;;;;;;1.45;1.27;;;;;;;-144.47;100.00;61586.06;5004128;28;20429;-79
2022/08/08 00:58:55;;;;;;;1.75;1.65;;;;;;;-144.47;100.00;61586.06;5013922;28;20442;-79
2022/08/08 01:01:40;;;;;;;1.25;1.25;;;;;;;-144.47;100.00;61586.06;4991660;28;20109;-78
2022/08/08 01:04:39;;;;;;;2.13;1.83;;;;;;;-144.47;100.00;61586.06;5002314;28;20136;-78
2022/08/08 01:07:35;;;;;;;2.13;1.80;;;;;;;-144.47;100.00;61586.06;4999564;28;20107;-77
2022/08/08 01:10:40;;;;;;;1.40;1.30;;;;;;;-144.47;100.00;61586.06;4998988;28;20464;-79
2022/08/08 01:13:25;;;;;;;2.13;1.60;;;;;;;-144.47;100.00;61586.06;5002303;28;20030;-79
2022/08/08 01:16:02;;;;;;;1.30;1.20;;;;;;;-144.47;100.00;61586.06;4998359;28;20038;-79
2022/08/08 01:18:49;;;;;;;1.73;1.63;;;;;;;-144.47;100.00;61586.06;5000736;28;20439;-78
2022/08/08 01:21:44;;;;;;;1.75;1.65;;;;;;;-144.47;100.00;61586.06;5002764;28;20104;-79
2022/08/08 01:24:25;;;;;;;1.92;1.67;;;;;;;-144.47;100.00;61586.06;4997237;28;20054;-78
2022/08/08 01:26:54;;;;;;;1.80;1.70;;;;;;;-144.47;100.00;61586.06;4994608;28;20045;-78
2022/08/08 01:29:38;;;;;;;1.80;1.40;;;;;;;-144.47;100.00;61586.06;5002556;28;20025;-78
2022/08/08 01:32:25;;;;;;;2.17;1.50;;;;;;;-144.47;100.00;61586.06;5000372;28;20529;-78
2022/08/08 01:35:36;;;;;;;1.75;1.65;;;;;;;-144.47;100.00;61586.06;4997927;28;20037;-78
2022/08/08 01:38:30;;;;;;;2.67;1.50;;;;;;;-144.47;100.00;61586.06;4910597;29;20405;-78
2022/08/08 01:41:01;;;;;;;1.65;1.55;;;;;;;-144.47;100.00;61586.06;4998862;28;20042;-78
2022/08/08 01:43:48;;;;;;;1.80;1.50;;;;;;;-144.47;100.00;61586.06;4998171;28;20034;-79
2022/08/08 01:46:23;;;;;;;1.45;1.38;;;;;;;-144.47;100.00;61586.06;4999736;28;20030;-79
2022/08/08 01:49:18;;;;;;;2.63;1.45;;;;;;;-144.47;100.00;61586.06;5001264;28;20030;-79
2022/08/08 01:52:18;;;;;;;2.03;1.92;;;;;;;-144.47;100.00;61586.06;4989578;28;20399;-78
2022/08/08 01:54:54;;;;;;;;;;;;;;;-144.47;100.00;61586.06;5000310;28;20042;-78
2022/08/08 01:57:46;;;;;;;1.90;1.80;;;;;;;-144.47;100.00;61586.06;5004188;28;20296;-79
2022/08/08 02:00:57;;;;;;;2.33;1.33;;;;;;;-144.47;100.00;61586.06;4998642;28;20480;-79
2022/08/08 02:06:14;;;;;;;2.10;1.90;;;;;;;20.94;100.00;61586.06;4971750;28;20038;-81
2022/08/08 02:09:02;;;;;;;2.42;1.75;;;;;;;21.26;100.00;61586.06;4972633;28;20034;-81
2022/08/08 02:11:38;;;;;;;4.30;1.60;;;;;;;20.94;100.00;61586.06;4972246;28;20398;-82
2022/08/08 02:14:03;;;;;;;1.75;1.60;;;;;;;21.10;100.00;61586.06;4973309;28;20355;-81
2022/08/08 02:16:40;;;;;;;;;;;;;;;21.10;100.00;61586.06;4974599;28;20026;-81
2022/08/08 02:19:10;;;;;;;1.50;1.40;;;;;;;21.26;100.00;61586.06;4991540;28;19979;-80
2022/08/08 02:24:58;;;;;;;1.60;1.50;;;;;;;21.26;100.00;61586.06;4988049;28;20057;-82
2022/08/08 02:27:28;;;;;;;2.20;1.67;;;;;;;187.31;100.00;61586.06;4973849;28;20170;-82
2022/08/08 02:30:02;;;;;;;4.22;1.58;;;;;;;21.26;100.00;61586.06;4971268;28;20121;-81
2022/08/08 02:32:46;;;;;;;1.55;1.45;;;;;;;104.25;100.00;61586.06;4991846;28;20043;-82
2022/08/08 02:35:33;;;;;;;1.70;1.60;;;;;;;42.00;100.00;61586.06;4991671;28;20038;-81
2022/08/08 02:38:37;;;;;;;2.85;1.50;;;;;;;42.00;100.00;61586.06;4971708;28;20033;-82
2022/08/08 02:41:23;;;;;;;2.80;1.50;;;;;;;31.63;100.00;61586.06;4996552;28;20034;-80
2022/08/08 02:44:04;;;;;;;;;;;;;;;26.45;100.00;61586.06;4966262;28;20030;-81
2022/08/08 02:46:42;;;;;;;;;;;;;;;22.56;100.00;61586.06;4972698;28;19921;-80
2022/08/08 02:49:26;;;;;;;3.63;3.33;;;;;;;26.45;100.00;61586.06;4970266;28;19930;-80
2022/08/08 02:52:16;;;;;;;5.30;3.80;;;;;;;22.56;100.00;61586.06;4978983;28;20040;-80
2022/08/08 02:55:07;;;;;;;3.67;3.47;;;;;;;22.56;100.00;61586.06;4966710;28;20049;-80
2022/08/08 02:57:41;;;;;;;5.03;4.72;;;;;;;22.56;100.00;61586.06;4977337;28;20031;-80
2022/08/08 03:00:21;;;;;;;6.25;5.60;;;;;;;26.45;100.00;61586.06;4979054;28;20387;-80
2022/08/08 03:02:54;;;;;;;6.18;5.57;;;;;;;26.45;100.00;61586.06;4977928;28;20137;-80
2022/08/08 03:05:27;;;;;;;5.85;5.35;;;;;;;21.26;100.00;61586.06;4978519;28;20043;-81
2022/08/08 03:08:30;;;;;;;6.38;5.78;;;;;;;21.18;100.00;61586.06;4983032;28;20034;-79
2022/08/08 03:11:31;;;;;;;6.40;5.40;;;;;;;21.09;100.00;61586.06;4985363;28;20030;-81
2022/08/08 03:14:30;;;;;;;6.38;5.75;;;;;;;21.10;100.00;61586.06;4983345;28;20153;-80
2022/08/08 03:16:58;;;;;;;6.93;5.35;;;;;;;21.05;100.00;61586.06;4979975;28;20110;-81
2022/08/08 03:22:32;;;;;;;5.43;5.00;;;;;;;21.01;100.00;61586.06;4982638;28;20039;-81
2022/08/08 03:25:03;;;;;;;6.38;5.88;;;;;;;21.01;100.00;61586.06;4976373;28;20030;-81
2022/08/08 03:27:36;;;;;;;6.60;6.00;;;;;;;-144.47;100.00;61586.06;4988443;28;20042;-80
2022/08/08 03:30:05;;;;;;;5.97;5.50;;;;;;;187.31;100.00;61586.06;4986200;28;20033;-81
2022/08/08 03:35:16;;;;;;;5.82;5.18;;;;;;;-144.47;100.00;61586.06;4986636;28;20038;-79
2022/08/08 03:37:42;;;;;;;6.03;5.53;;;;;;;187.31;100.00;61586.06;4984953;28;20045;-81
2022/08/08 03:40:08;;;;;;;6.07;5.53;;;;;;;-144.47;100.00;61586.06;4984641;28;20131;-80
2022/08/08 03:42:36;;;;;;;6.10;5.70;;;;;;;-144.47;100.00;61586.06;4982340;28;20097;-79
2022/08/08 03:45:21;;;;;;;6.80;6.18;;;;;;;-144.47;100.00;61586.06;4981494;28;20023;-81
2022/08/08 03:47:57;;;;;;;6.38;5.78;;;;;;;-144.47;100.00;61586.06;4980082;28;20031;-81
2022/08/08 03:50:23;;;;;;;6.65;6.05;;;;;;;-144.47;100.00;61586.06;4978633;28;20073;-81
2022/08/08 03:52:49;;;;;;;5.88;5.38;;;;;;;-144.47;100.00;61586.06;4985716;28;20109;-81
2022/08/08 03:55:17;;;;;;;7.53;5.70;;;;;;;-144.47;100.00;61586.06;4982713;28;20090;-81
2022/08/08 03:57:45;;;;;;;6.35;5.93;;;;;;;-144.47;100.00;61586.06;4985754;28;20023;-80
2022/08/08 04:00:13;;;;;;;7.65;6.30;;;;;;;-144.47;100.00;61586.06;4981585;28;20035;-80
2022/08/08 04:02:41;;;;;;;8.32;6.15;;;;;;;-144.47;100.00;61586.06;4975714;28;20139;-80
2022/08/08 04:05:08;;;;;;;6.07;5.55;;;;;;;-144.47;100.00;61586.06;4988023;28;20042;-81
2022/08/08 04:07:38;;;;;;;6.40;5.80;;;;;;;-144.47;100.00;61586.06;4987188;28;20030;-80
2022/08/08 04:10:06;;;;;;;6.32;5.82;;;;;;;-144.47;100.00;61586.06;4993352;28;20030;-79
2022/08/08 04:12:34;;;;;;;6.50;5.88;;;;;;;-144.47;100.00;61586.06;4990198;28;20038;-81
2022/08/08 04:15:02;;;;;;;6.80;6.00;;;;;;;-144.47;100.00;61586.06;4989386;28;20022;-81
2022/08/08 04:17:29;;;;;;;6.35;5.80;;;;;;;-144.47;100.00;61586.06;4985570;28;20053;-81
2022/08/08 04:19:55;;;;;;;5.88;5.45;;;;;;;-144.47;100.00;61586.06;4985033;28;20030;-81
2022/08/08 04:22:25;;;;;;;6.15;5.65;;;;;;;-144.47;100.00;61586.06;4987587;28;20390;-79
2022/08/08 04:24:52;;;;;;;5.95;5.55;;;;;;;-144.47;100.00;61586.06;5020722;28;20121;-81
2022/08/08 04:27:18;;;;;;;5.15;4.75;;;;;;;-144.47;100.00;61586.06;4984908;28;20045;-81
2022/08/08 04:29:44;;;;;;;6.22;5.70;;;;;;;-144.47;100.00;61586.06;4991215;28;20049;-81
2022/08/08 04:32:13;;;;;;;5.57;4.75;;;;;;;-144.47;100.00;61586.06;4990734;28;20504;-80
2022/08/08 04:34:40;;;;;;;5.40;4.70;;;;;;;-144.47;100.00;61586.06;4992855;28;20503;-81
2022/08/08 04:37:06;;;;;;;5.05;4.65;;;;;;;-144.47;100.00;61586.06;5017293;28;20026;-81
2022/08/08 04:39:32;;;;;;;4.80;4.32;;;;;;;-144.47;100.00;61586.06;4995396;28;20043;-81
2022/08/08 04:41:58;;;;;;;4.95;4.45;;;;;;;-144.47;100.00;61586.06;4995946;28;20019;-82
2022/08/08 04:44:24;;;;;;;4.85;4.30;;;;;;;-144.47;100.00;61586.06;4997607;28;20117;-81
2022/08/08 04:46:49;;;;;;;4.43;4.13;;;;;;;-144.47;100.00;61586.06;4987013;28;20367;-81
2022/08/08 04:49:15;;;;;;;4.65;4.22;;;;;;;20.29;100.00;61586.06;4993931;28;20065;-80
2022/08/08 04:51:40;;;;;;;4.80;4.35;;;;;;;20.61;100.00;61586.06;4993188;28;20034;-81
2022/08/08 04:54:06;;;;;;;6.40;3.78;;;;;;;20.13;100.00;61586.06;4988013;28;20034;-81
2022/08/08 04:56:33;;;;;;;4.88;3.55;;;;;;;19.92;100.00;61586.06;4988055;28;20090;-81
2022/08/08 04:58:58;;;;;;;4.45;3.75;;;;;;;19.94;100.00;61586.06;4990866;28;20490;-80
2022/08/08 05:01:25;;;;;;;4.93;3.70;;;;;;;19.94;100.00;61586.06;4988374;28;20101;-81
2022/08/08 05:03:50;;;;;;;3.95;3.60;;;;;;;19.93;100.00;61586.06;4984711;28;20133;-81
2022/08/08 05:06:16;;;;;;;4.68;4.18;;;;;;;20.29;100.00;61586.06;4989571;28;20038;-79
2022/08/08 05:08:43;;;;;;;4.03;3.72;;;;;;;20.08;100.00;61586.06;4978176;28;20130;-80
2022/08/08 05:11:12;;;;;;;4.90;3.85;;;;;;;20.13;100.00;61586.06;4990391;28;20559;-80
2022/08/08 05:13:41;;;;;;;4.03;3.72;;;;;;;-144.47;100.00;61586.06;4984938;28;20041;-81
2022/08/08 05:16:07;;;;;;;3.92;3.60;;;;;;;-144.47;100.00;61586.06;4988774;28;20088;-81
2022/08/08 05:18:35;;;;;;;3.80;3.50;;;;;;;-144.47;100.00;61586.06;4985379;28;20061;-81
2022/08/08 05:21:07;;;;;;;6.40;3.10;;;;;;;19.95;100.00;61586.06;4989889;28;20038;-81
2022/08/08 05:23:33;;;;;;;3.15;2.95;;;;;;;19.94;100.00;61586.06;4979600;28;20505;-81
2022/08/08 05:26:00;;;;;;;6.05;3.42;;;;;;;19.95;100.00;61586.06;4989202;28;20086;-81
2022/08/08 05:28:26;;;;;;;4.45;3.05;;;;;;;19.91;100.00;61586.06;4985501;28;20085;-82
2022/08/08 05:30:52;;;;;;;3.92;3.55;;;;;;;19.90;100.00;61586.06;4989655;28;20497;-79
2022/08/08 05:33:17;;;;;;;3.90;3.58;;;;;;;19.87;100.00;61586.06;4984967;28;20038;-81
2022/08/08 05:35:45;;;;;;;4.93;3.80;;;;;;;19.87;100.00;61586.06;4989897;28;20461;-81
2022/08/08 05:38:17;;;;;;;4.75;3.85;;;;;;;19.87;100.00;61586.06;4987085;28;20026;-80
2022/08/08 05:40:52;;;;;;;5.15;3.97;;;;;;;19.93;100.00;61586.06;4982522;28;20035;-79
2022/08/08 05:43:32;;;;;;;6.40;4.25;;;;;;;-144.47;100.00;61586.06;4989421;28;20081;-80
2022/08/08 05:46:06;;;;;;;4.57;4.28;;;;;;;20.13;100.00;61586.06;4991088;28;20088;-81
2022/08/08 05:48:33;;;;;;;4.70;3.95;;;;;;;20.13;100.00;61586.06;4984351;28;20083;-79
2022/08/08 05:50:59;;;;;;;5.70;4.20;;;;;;;20.04;100.00;61586.06;4988371;28;20030;-80
2022/08/08 05:53:25;;;;;;;4.55;4.15;;;;;;;20.29;100.00;61586.06;4982706;28;20034;-80
2022/08/08 05:55:55;;;;;;;6.47;4.28;;;;;;;19.95;100.00;61586.06;4985652;28;20172;-80
2022/08/08 05:58:29;;;;;;;6.18;5.55;;;;;;;-144.47;100.00;61586.06;4982393;28;20033;-81
2022/08/08 06:00:56;;;;;;;5.38;4.90;;;;;;;19.97;100.00;61586.06;4971840;28;20081;-81
2022/08/08 06:03:23;;;;;;;4.40;4.00;;;;;;;-144.47;100.00;61586.06;4984613;28;20062;-81
2022/08/08 06:05:50;;;;;;;4.82;4.43;;;;;;;19.93;100.00;61586.06;4978878;28;20521;-81
2022/08/08 06:08:22;;;;;;;5.93;4.40;;;;;;;20.04;100.00;61586.06;4989834;28;20052;-81
2022/08/08 06:10:49;;;;;;;4.68;4.10;;;;;;;20.19;100.00;61586.06;4985433;28;20030;-81
2022/08/08 06:13:15;;;;;;;7.13;4.82;;;;;;;20.19;100.00;61586.06;4981597;28;20034;-82
2022/08/08 06:15:46;;;;;;;5.28;4.88;;;;;;;20.21;100.00;61586.06;4988548;28;20060;-82
2022/08/08 06:18:14;;;;;;;5.22;4.82;;;;;;;20.09;100.00;61586.06;4974384;28;20089;-80
2022/08/08 06:20:40;;;;;;;6.40;5.78;;;;;;;20.12;100.00;61586.06;4988754;28;20080;-80
2022/08/08 06:23:06;;;;;;;5.25;4.85;;;;;;;20.21;100.00;61586.06;4984731;28;20037;-81
2022/08/08 06:25:42;;;;;;;7.53;4.85;;;;;;;20.24;100.00;61586.06;4986924;28;20525;-80
2022/08/08 06:28:14;;;;;;;5.30;4.85;;;;;;;-144.47;100.00;61586.06;4987270;28;20375;-81
2022/08/08 06:30:43;;;;;;;5.45;4.95;;;;;;;-144.47;100.00;61586.06;4988576;28;20482;-80
2022/08/08 06:33:11;;;;;;;6.00;5.50;;;;;;;-144.47;100.00;61586.06;4984091;28;20089;-81
2022/08/08 06:35:44;;;;;;;5.22;4.70;;;;;;;-144.47;100.00;61586.06;4993265;28;20030;-80
2022/08/08 06:38:10;;;;;;;5.45;4.95;;;;;;;20.72;100.00;61586.06;4979569;28;20031;-80
2022/08/08 06:40:38;;;;;;;5.13;4.72;;;;;;;-144.47;100.00;61586.06;4984361;28;20023;-82
2022/08/08 06:43:09;;;;;;;5.32;4.72;;;;;;;20.94;100.00;61586.06;4986885;28;20077;-79
2022/08/08 06:45:46;;;;;;;6.38;4.35;;;;;;;21.06;100.00;61586.06;4985989;28;20121;-81
2022/08/08 06:48:12;;;;;;;4.50;4.20;;;;;;;21.18;100.00;61586.06;4979723;28;20030;-80
2022/08/08 06:50:40;;;;;;;4.90;4.55;;;;;;;-144.47;100.00;61586.06;4989217;28;20027;-81
2022/08/08 06:53:09;;;;;;;5.67;4.73;;;;;;;-144.47;100.00;61586.06;4985695;28;20102;-79
2022/08/08 06:55:39;;;;;;;5.38;4.97;;;;;;;104.25;100.00;61586.06;4987225;28;20332;-81
2022/08/08 06:58:05;;;;;;;4.50;4.10;;;;;;;-144.47;100.00;61586.06;4990319;28;20030;-82
2022/08/08 07:00:36;;;;;;;4.95;3.95;;;;;;;-144.47;100.00;61586.06;4984344;28;20105;-81
2022/08/08 07:03:11;;;;;;;3.38;3.08;;;;;;;-144.47;100.00;61586.06;4983458;28;20027;-82
2022/08/08 07:05:40;;;;;;;4.57;3.35;;;;;;;-144.47;100.00;61586.06;4982231;28;20074;-82
2022/08/08 07:08:27;;;;;;;3.63;3.38;;;;;;;-144.47;100.00;61586.06;4976594;28;20121;-82
2022/08/08 07:10:58;;;;;;;3.83;3.50;;;;;;;-144.47;100.00;61586.06;4978962;28;20049;-82
2022/08/08 07:13:31;;;;;;;3.67;3.47;;;;;;;-144.47;100.00;61586.06;5015594;28;20471;-83
2022/08/08 07:16:13;;;;;;;6.47;3.80;;;;;;;22.01;100.00;61586.06;5014833;28;20057;-81
2022/08/08 07:19:05;;;;;;;4.07;3.72;;;;;;;-144.47;100.00;61586.06;4985192;28;20045;-80
2022/08/08 07:21:54;;;;;;;6.35;3.45;;;;;;;-144.47;100.00;61586.06;4985422;28;20061;-81
2022/08/08 07:24:28;;;;;;;3.15;2.85;;;;;;;-144.47;100.00;61586.06;5009851;28;20506;-81
2022/08/08 07:27:00;;;;;;;3.60;3.30;;;;;;;-144.47;100.00;61586.06;4982848;28;20465;-80
2022/08/08 07:29:25;;;;;;;3.17;2.97;;;;;;;-144.47;100.00;61586.06;4983855;28;20034;-81
2022/08/08 07:31:51;;;;;;;3.20;2.97;;;;;;;187.31;100.00;61586.06;4989713;28;20038;-80
2022/08/08 07:34:18;;;;;;;3.22;2.78;;;;;;;62.74;100.00;61586.06;4986332;28;20402;-80
2022/08/08 07:36:47;;;;;;;4.97;3.15;;;;;;;104.25;100.00;61586.06;4987467;28;20043;-81
2022/08/08 07:39:16;;;;;;;3.45;2.55;;;;;;;104.25;100.00;61586.06;4982731;28;20034;-82
2022/08/08 07:41:42;;;;;;;3.92;2.53;;;;;;;187.31;100.00;61586.06;4992631;28;20718;-82
2022/08/08 07:44:08;;;;;;;3.25;2.83;;;;;;;104.25;100.00;61586.06;4988185;28;20083;-82
2022/08/08 07:46:34;;;;;;;2.92;2.70;;;;;;;62.74;100.00;61586.06;4990290;28;20113;-81
2022/08/08 07:49:08;;;;;;;3.72;3.08;;;;;;;22.93;100.00;61586.06;4987600;28;20030;-82
2022/08/08 07:51:35;;;;;;;2.55;2.40;;;;;;;104.25;100.00;61586.06;4987142;28;20500;-81
2022/08/08 07:54:11;;;;;;;2.90;2.58;;;;;;;104.25;100.00;61586.06;4989356;28;20049;-80
2022/08/08 07:56:54;;;;;;;2.90;2.67;;;;;;;-144.47;100.00;61586.06;4987444;28;20085;-81
2022/08/08 07:59:23;;;;;;;2.45;2.25;;;;;;;62.74;100.00;61586.06;4993071;28;20038;-81
2022/08/08 08:01:57;;;;;;;4.97;3.00;;;;;;;62.74;100.00;61586.06;4993665;28;20043;-81
2022/08/08 08:04:31;;;;;;;3.20;2.65;;;;;;;62.74;100.00;61586.06;5017500;28;20050;-81
2022/08/08 08:06:59;;;;;;;4.43;2.53;;;;;;;42.00;100.00;61586.06;4990527;28;20037;-81
2022/08/08 08:09:30;;;;;;;3.03;2.25;;;;;;;62.74;100.00;61586.06;4989398;28;20078;-81
2022/08/08 08:11:58;;;;;;;2.10;1.90;;;;;;;23.43;100.00;61586.06;4992664;28;20087;-81
2022/08/08 08:14:39;;;;;;;1.90;1.80;;;;;;;-144.47;100.00;61586.06;4986862;28;20649;-80
2022/08/08 08:17:08;;;;;;;1.88;1.77;;;;;;;-144.47;100.00;61586.06;4992533;28;20134;-81
2022/08/08 08:19:35;;;;;;;2.00;1.90;;;;;;;-144.47;100.00;61586.06;4987031;28;20042;-81
2022/08/08 08:22:01;;;;;;;2.33;2.13;;;;;;;-144.47;100.00;61586.06;4974598;28;20018;-81
2022/08/08 08:24:49;;;;;;;1.60;1.50;;;;;;;-144.47;100.00;61586.06;4988912;28;20046;-81
2022/08/08 08:27:18;;;;;;;1.80;1.40;;;;;;;-144.47;100.00;61586.06;4991171;28;20046;-81
2022/08/08 08:29:47;;;;;;;1.83;1.73;;;;;;;-144.47;100.00;61586.06;4977800;28;20057;-80
2022/08/08 08:32:12;;;;;;;1.80;1.63;;;;;;;-144.47;100.00;61586.06;4986903;28;20176;-80
2022/08/08 08:34:38;;;;;;;1.83;1.73;;;;;;;-144.47;100.00;61586.06;4986906;28;20122;-81
2022/08/08 08:37:05;;;;;;;1.95;1.70;;;;;;;-144.47;100.00;61586.06;4988205;28;20454;-81
2022/08/08 08:39:31;;;;;;;1.48;1.40;;;;;;;-144.47;100.00;61586.06;4992513;28;20038;-80
2022/08/08 08:41:57;;;;;;;3.60;1.48;;;;;;;-144.47;100.00;61586.06;4996293;28;20033;-81
2022/08/08 08:44:26;;;;;;;2.20;2.10;;;;;;;187.31;100.00;61586.06;5000311;28;20051;-81
2022/08/08 08:46:54;;;;;;;2.38;1.70;;;;;;;-144.47;100.00;61586.06;4986489;28;20042;-80
2022/08/08 08:49:20;;;;;;;1.75;1.60;;;;;;;-144.47;100.00;61586.06;4985814;28;20089;-80
2022/08/08 08:51:48;;;;;;;1.85;1.70;;;;;;;24.24;100.00;61586.06;4988108;28;20041;-80
2022/08/08 08:54:17;;;;;;;2.17;1.65;;;;;;;-144.47;100.00;61586.06;4988674;28;20061;-81
2022/08/08 08:56:46;;;;;;;1.58;1.48;;;;;;;-144.47;100.00;61586.06;4975924;28;20053;-81
2022/08/08 08:59:15;;;;;;;2.17;1.98;;;;;;;-144.47;100.00;61586.06;4987503;28;20027;-81
2022/08/08 09:01:50;;;;;;;5.13;1.77;;;;;;;-144.47;100.00;61586.06;4991234;28;20066;-81
2022/08/08 09:04:24;;;;;;;2.28;1.75;;;;;;;-144.47;100.00;61586.06;5012924;28;20089;-81
2022/08/08 09:06:52;;;;;;;1.65;1.55;;;;;;;-144.47;100.00;61586.06;4979233;28;20523;-80
2022/08/08 09:09:26;;;;;;;1.88;1.77;;;;;;;-144.47;100.00;61586.06;5005113;28;20023;-81
2022/08/08 09:12:00;;;;;;;1.60;1.50;;;;;;;-144.47;100.00;61586.06;4979014;28;20037;-79
2022/08/08 09:14:27;;;;;;;;;;;;;;;-144.47;100.00;61586.06;4999883;28;20530;-79
2022/08/08 09:16:56;;;;;;;2.40;2.20;;;;;;;-144.47;100.00;61586.06;4988376;28;20400;-80
2022/08/08 09:19:24;;;;;;;2.50;2.28;;;;;;;-144.47;100.00;61586.06;4989950;28;20030;-79
2022/08/08 09:21:53;;;;;;;1.98;1.85;;;;;;;104.25;100.00;61586.06;4969604;28;20172;-81
2022/08/08 09:24:18;;;;;;;2.30;2.10;;;;;;;-144.47;100.00;61586.06;4980416;28;20022;-80
2022/08/08 09:27:00;;;;;;;1.73;1.50;;;;;;;-144.47;100.00;61586.06;4990688;28;20065;-81
2022/08/08 09:29:26;;;;;;;1.70;1.60;;;;;;;-144.47;100.00;61586.06;4988848;28;20026;-79
2022/08/08 09:32:08;;;;;;;1.73;1.63;;;;;;;-144.47;100.00;61586.06;4988029;28;20026;-80
2022/08/08 09:34:42;;;;;;;2.53;2.00;;;;;;;-144.47;100.00;61586.06;4987147;28;20049;-79
2022/08/08 09:37:16;;;;;;;4.80;1.60;;;;;;;-144.47;100.00;61586.06;4969444;28;20179;-80
2022/08/08 09:40:04;;;;;;;1.25;1.23;;;;;;;-144.47;100.00;61586.06;4986245;28;20410;-79
2022/08/08 09:42:37;;;;;;;1.90;1.42;;;;;;;-144.47;100.00;61586.06;4981594;28;20038;-81
2022/08/08 09:45:08;;;;;;;1.90;1.20;;;;;;;-144.47;100.00;61586.06;4983209;28;20120;-80
2022/08/08 09:47:42;;;;;;;3.55;1.70;;;;;;;-144.47;100.00;61586.06;4986873;28;20804;-80
2022/08/08 09:50:12;;;;;;;1.13;1.13;;;;;;;-144.47;100.00;61586.06;4985705;28;20057;-80
2022/08/08 09:52:40;;;;;;;1.88;1.25;;;;;;;-144.47;100.00;61586.06;4981748;28;20039;-81
2022/08/08 09:55:06;;;;;;;1.60;1.50;;;;;;;-144.47;100.00;61586.06;4986448;28;20035;-81
2022/08/08 09:57:35;;;;;;;2.75;1.23;;;;;;;-144.47;100.00;61586.06;4985602;28;20093;-81
2022/08/08 10:00:03;;;;;;;2.15;1.30;;;;;;;-144.47;100.00;61586.06;4986005;28;20038;-81
2022/08/08 10:02:43;;;;;;;1.20;1.10;;;;;;;187.31;100.00;61586.06;4985288;28;20395;-81
2022/08/08 10:05:21;;;;;;;1.30;1.20;;;;;;;187.31;100.00;61586.06;4987973;28;20043;-80
2022/08/08 10:07:49;;;;;;;1.30;1.20;;;;;;;-144.47;100.00;61586.06;4982152;28;20129;-80
2022/08/08 10:10:24;;;;;;;2.60;1.48;;;;;;;-144.47;100.00;61586.06;4989670;28;20019;-81
2022/08/08 10:12:49;;;;;;;1.50;1.40;;;;;;;187.31;100.00;61586.06;4984477;28;20031;-81
2022/08/08 10:15:15;;;;;;;2.15;1.35;;;;;;;-144.47;100.00;61586.06;4986779;28;20037;-81
2022/08/08 10:17:49;;;;;;;1.30;1.20;;;;;;;-144.47;100.00;61586.06;4982810;28;20037;-81
2022/08/08 10:20:15;;;;;;;1.67;1.20;;;;;;;187.31;100.00;61586.06;4986239;28;20030;-81
2022/08/08 10:22:59;;;;;;;1.83;1.63;;;;;;;104.25;100.00;61586.06;4987943;28;20062;-81
2022/08/08 10:25:25;;;;;;;1.40;1.27;;;;;;;-144.47;100.00;61586.06;4979989;28;20061;-81
2022/08/08 10:28:02;;;;;;;1.60;1.30;;;;;;;-144.47;100.00;61586.06;4982540;28;20062;-81
2022/08/08 10:30:28;;;;;;;1.15;1.05;;;;;;;-144.47;100.00;61586.06;4983608;28;20112;-81
2022/08/08 10:32:56;;;;;;;1.55;1.20;;;;;;;104.25;100.00;61586.06;4986925;28;20089;-82
2022/08/08 10:35:27;;;;;;;2.50;1.10;;;;;;;-144.47;100.00;61586.06;4985949;28;20054;-80
2022/08/08 10:38:03;;;;;;;1.10;0.80;;;;;;;104.25;100.00;61586.06;4982513;28;20030;-81
2022/08/08 10:40:31;;;;;;;1.77;1.00;;;;;;;187.31;100.00;61586.06;4985774;28;20113;-80
2022/08/08 10:43:01;;;;;;;0.88;0.88;;;;;;;187.31;100.00;61586.06;4986117;28;20034;-81
2022/08/08 10:45:27;;;;;;;;;;;;;;;31.63;100.00;61586.06;4987000;28;20041;-81
2022/08/08 10:47:58;;;;;;;0.95;0.85;;;;;;;31.63;100.00;61586.06;4983522;28;20326;-81
2022/08/08 10:50:35;;;;;;;0.95;0.82;;;;;;;27.74;100.00;61586.06;5011157;28;20030;-82
2022/08/08 10:53:05;;;;;;;2.05;1.55;;;;;;;27.74;100.00;61586.06;4982738;28;20385;-82
2022/08/08 10:55:32;;;;;;;1.20;1.10;;;;;;;27.74;100.00;61586.06;4985781;28;20046;-81
2022/08/08 10:58:04;;;;;;;0.77;0.77;;;;;;;26.54;100.00;61586.06;4983430;28;20382;-82
2022/08/08 11:00:30;;;;;;;0.70;0.70;;;;;;;29.04;100.00;61586.06;4983009;28;20039;-81
2022/08/08 11:02:57;;;;;;;1.13;0.70;;;;;;;187.31;100.00;61586.06;5005495;28;20410;-82
2022/08/08 11:05:26;;;;;;;2.05;0.70;;;;;;;29.04;100.00;61586.06;4984939;28;20398;-80
2022/08/08 11:07:54;;;;;;;0.70;0.60;;;;;;;27.74;100.00;61586.06;4986183;28;20038;-81
2022/08/08 11:10:23;;;;;;;1.52;0.65;;;;;;;42.00;100.00;61586.06;4984027;28;20477;-82
2022/08/08 11:12:53;;;;;;;1.00;0.90;;;;;;;31.63;100.00;61586.06;4985702;28;20034;-82
2022/08/08 11:15:24;;;;;;;0.95;0.70;;;;;;;29.04;100.00;61586.06;4988288;28;20126;-82
2022/08/08 11:17:51;;;;;;;0.88;0.88;;;;;;;31.63;100.00;61586.06;4987794;28;20121;-82
2022/08/08 11:20:18;;;;;;;0.90;0.90;;;;;;;29.04;100.00;61586.06;4990148;28;20061;-80
2022/08/08 11:22:49;;;;;;;1.40;1.05;;;;;;;27.20;100.00;61586.06;4988429;28;20113;-81
2022/08/08 11:25:15;;;;;;;0.80;0.80;;;;;;;-144.47;100.00;61586.06;4990013;28;20038;-81
2022/08/08 11:27:43;;;;;;;0.80;0.80;;;;;;;-144.47;100.00;61586.06;4986656;28;20462;-81
2022/08/08 11:30:09;;;;;;;0.80;0.75;;;;;;;187.31;100.00;61586.06;4988659;28;20035;-81
2022/08/08 11:32:41;;;;;;;0.88;0.70;;;;;;;187.31;100.00;61586.06;4988082;28;20027;-81
2022/08/08 11:35:12;;;;;;;1.35;0.80;;;;;;;-144.47;100.00;61586.06;4991866;28;20054;-81
2022/08/08 11:37:40;;;;;;;1.45;0.85;;;;;;;-144.47;100.00;61586.06;4990821;28;20038;-82
2022/08/08 11:40:11;;;;;;;0.85;0.85;;;;;;;-144.47;100.00;61586.06;4988161;28;20029;-80
2022/08/08 11:42:38;;;;;;;1.60;0.65;;;;;;;-144.47;100.00;61586.06;4989520;28;20034;-81
2022/08/08 11:45:05;;;;;;;0.68;0.68;;;;;;;27.63;100.00;61586.06;4988369;28;20031;-81
2022/08/08 11:47:32;;;;;;;1.58;0.70;;;;;;;104.25;100.00;61586.06;4986800;28;20093;-82
2022/08/08 11:50:07;;;;;;;2.58;0.70;;;;;;;187.31;100.00;61586.06;4990692;28;20026;-80
2022/08/08 11:52:34;;;;;;;0.90;0.80;;;;;;;27.80;100.00;82830.50;4984734;28;20451;-82
2022/08/08 11:55:00;;;;;;;0.80;0.60;;;;;;;187.31;100.00;61586.06;4986201;28;20459;-82
2022/08/08 11:57:28;;;;;;;0.93;0.70;;;;;;;104.25;100.00;61586.06;4988471;28;20114;-81